Weather at St. Andrews School Airstrip

Public forecast

Using degrees Celsius for public forecast. Weather courtesy of forecast.io.

Closest aviation weather report (METAR) to St. Andrews School Airstrip

Closest report is Nakuru Airport, 23.6 nm (43.7 km) E.

2024/05/28 20:00 (retrieved 1 hour ago)

HKNK 282000Z 00000KT CAVOK 18/14

Closest aviation forecast (TAF) to St. Andrews School Airstrip

Forecast is more than 6 hours old.

Closest forecast is Eldoret International Airport, 51.6 nm (95.6 km) NW.

2024/05/28 12:54 (retrieved 8 hours ago)

TAF TAF HKEL 281100Z 2812/2918 13010KT 9999 FEW020CB SCT023 TEMPO 2812/28 16 -TSRA FEW020CB SCT022 BKN080 BECMG 2820/2823 VRB02KT CAVOK BECMG 2 908/2911 11010KT 9999 FEW020CB SCT021